Time;durP1;ratioP1;P1;durP2;ratioP2;P2;SDS_P1;SDS_P2;PMS_P1;PMS_P2;Temp;Humidity;BMP_temperature;BMP_pressure;BME280_temperature;BME280_humidity;BME280_pressure;Samples;Min_cycle;Max_cycle;Signal;HPM_P1;HPM_P2
2024/04/10 00:00:23;;;;;;;;;;;;;;;6.65;100.00;95875.50;5355376;26;19936;-70
2024/04/10 00:02:50;;;;;;;;;;;;;;;6.53;100.00;95871.31;5356407;26;20370;-69
2024/04/10 00:05:18;;;;;;;;;;;;;;;6.54;100.00;95875.63;5360684;26;19936;-70
2024/04/10 00:07:46;;;;;;;;;;;;;;;6.61;100.00;95862.88;5359637;26;20455;-70
2024/04/10 00:10:13;;;;;;;;;;;;;;;6.64;100.00;95873.09;5358214;26;20376;-70
2024/04/10 00:12:40;;;;;;;;;;;;;;;6.68;100.00;95870.72;5355703;26;20310;-69
2024/04/10 00:15:08;;;;;;;;;;;;;;;6.66;100.00;95865.63;5357495;26;20367;-71
2024/04/10 00:17:35;;;;;;;;;;;;;;;6.68;100.00;95874.19;5349989;26;19930;-71
2024/04/10 00:20:03;;;;;;;;;;;;;;;6.63;100.00;95872.28;5356130;26;20351;-72
2024/04/10 00:22:31;;;;;;;;;;;;;;;6.59;100.00;95878.34;5360567;26;19936;-71
2024/04/10 00:25:01;;;;;;;;;;;;;;;6.52;100.00;95891.06;5356309;26;19936;-69
2024/04/10 00:27:28;;;;;;;;;;;;;;;6.56;100.00;95889.53;5353142;26;20224;-70
2024/04/10 00:29:55;;;;;;;;;;;;;;;6.52;100.00;95891.06;5340423;26;19929;-70
2024/04/10 00:32:25;;;;;;;;;;;;;;;6.41;100.00;95900.00;5347738;26;20264;-69
2024/04/10 00:34:53;;;;;;;;;;;;;;;6.24;100.00;95906.16;5360099;26;20371;-70
2024/04/10 00:37:20;;;;;;;;;;;;;;;6.23;100.00;95901.84;5355742;26;19929;-69
2024/04/10 00:39:47;;;;;;;;;;;;;;;6.29;100.00;95905.41;5356903;26;20506;-69
2024/04/10 00:42:15;;;;;;;;;;;;;;;6.31;100.00;95905.16;5359343;26;19936;-71
2024/04/10 00:44:46;;;;;;;;;;;;;;;6.27;100.00;95901.38;5363824;26;19929;-70
2024/04/10 00:47:15;;;;;;;;;;;;;;;6.29;100.00;95899.25;5349590;26;19957;-70
2024/04/10 00:49:43;;;;;;;;;;;;;;;6.40;100.00;95887.69;5359993;26;19936;-70
2024/04/10 00:52:11;;;;;;;;;;;;;;;6.36;100.00;95891.88;5359463;26;20232;-70
2024/04/10 00:54:39;;;;;;;;;;;;;;;6.40;100.00;95882.34;5357820;26;19936;-71
2024/04/10 00:57:06;;;;;;;;;;;;;;;6.52;100.00;95881.19;5358225;26;19936;-70
2024/04/10 00:59:34;;;;;;;;;;;;;;;6.43;100.00;95876.53;5356752;26;20147;-70
2024/04/10 01:02:04;;;;;;;;;;;;;;;6.43;100.00;95877.31;5355159;26;20261;-70
2024/04/10 01:04:31;;;;;;;;;;;;;;;6.48;100.00;95880.09;5361741;26;19930;-70
2024/04/10 01:06:58;;;;;;;;;;;;;;;6.56;100.00;95874.31;5361258;26;20016;-69
2024/04/10 01:09:25;;;;;;;;;;;;;;;6.60;100.00;95877.28;5351875;26;19930;-70
2024/04/10 01:11:53;;;;;;;;;;;;;;;6.59;100.00;95873.81;5360109;26;19930;-70
2024/04/10 01:14:20;;;;;;;;;;;;;;;6.57;100.00;95878.63;5362182;26;19945;-69
2024/04/10 01:16:47;;;;;;;;;;;;;;;6.54;100.00;95878.28;5352110;26;20416;-71
2024/04/10 01:19:15;;;;;;;;;;;;;;;6.54;100.00;95876.41;5363006;26;19965;-71
2024/04/10 01:21:42;;;;;;;;;;;;;;;6.61;100.00;95878.91;5342896;26;20000;-70
2024/04/10 01:24:09;;;;;;;;;;;;;;;6.60;100.00;95875.44;5345747;26;20292;-69
2024/04/10 01:26:37;;;;;;;;;;;;;;;6.60;100.00;95877.28;5354928;26;19936;-69
2024/04/10 01:29:04;;;;;;;;;;;;;;;6.63;100.00;95884.81;5359343;26;20270;-69
2024/04/10 01:31:31;;;;;;;;;;;;;;;6.58;100.00;95890.06;5354682;26;20267;-70
2024/04/10 01:33:59;;;;;;;;;;;;;;;6.58;100.00;95885.53;5355306;26;20386;-70
2024/04/10 01:36:27;;;;;;;;;;;;;;;6.70;100.00;95898.81;5351499;26;19936;-70
2024/04/10 01:38:54;;;;;;;;;;;;;;;6.72;100.00;95903.91;5354072;26;19929;-71
2024/04/10 01:41:21;;;;;;;;;;;;;;;6.64;100.00;95895.28;5352686;26;19929;-70
2024/04/10 01:43:51;;;;;;;;;;;;;;;6.68;100.00;95895.56;5360761;26;19946;-70
2024/04/10 01:46:18;;;;;;;;;;;;;;;6.69;100.00;95897.19;5351376;26;19930;-70
2024/04/10 01:48:45;;;;;;;;;;;;;;;6.70;100.00;95887.31;5363826;26;19930;-69
2024/04/10 01:51:13;;;;;;;;;;;;;;;6.67;100.00;95887.78;5360402;26;19929;-69
2024/04/10 01:53:40;;;;;;;;;;;;;;;6.61;100.00;95895.75;5358861;26;19940;-69
2024/04/10 01:56:07;;;;;;;;;;;;;;;6.64;100.00;95897.13;5357381;26;19930;-70
2024/04/10 01:58:34;;;;;;;;;;;;;;;6.61;100.00;95905.63;5357202;26;19930;-70
2024/04/10 02:01:03;;;;;;;;;;;;;;;6.58;100.00;95906.09;5363550;26;19936;-70
2024/04/10 02:03:30;;;;;;;;;;;;;;;6.51;100.00;95906.28;5353345;26;19935;-70
2024/04/10 02:05:58;;;;;;;;;;;;;;;6.49;100.00;95902.25;5363016;26;20038;-71
2024/04/10 02:08:25;;;;;;;;;;;;;;;6.52;100.00;95912.44;5357187;26;19934;-69
2024/04/10 02:10:58;;;;;;;;;;;;;;;6.51;100.00;95908.13;5360937;26;19930;-70
2024/04/10 02:13:26;;;;;;;;;;;;;;;6.55;100.00;95911.94;5368043;26;20396;-70
2024/04/10 02:15:53;;;;;;;;;;;;;;;6.55;100.00;95914.63;5321520;26;19931;-71
2024/04/10 02:18:20;;;;;;;;;;;;;;;6.52;100.00;95915.09;5357426;26;20244;-71
2024/04/10 02:20:56;;;;;;;;;;;;;;;6.51;100.00;95918.81;5354395;26;20042;-70
2024/04/10 02:23:26;;;;;;;;;;;;;;;6.49;100.00;95923.63;5357438;26;20344;-70
2024/04/10 02:25:53;;;;;;;;;;;;;;;6.45;100.00;95933.16;5355222;26;20439;-70
2024/04/10 02:28:21;;;;;;;;;;;;;;;6.45;100.00;95939.31;5358878;26;19939;-71
2024/04/10 02:30:49;;;;;;;;;;;;;;;6.40;100.00;95936.56;5360634;26;19930;-70
2024/04/10 02:33:17;;;;;;;;;;;;;;;6.51;100.00;95940.19;5357804;26;19941;-70
2024/04/10 02:35:44;;;;;;;;;;;;;;;6.53;100.00;95952.25;5361834;26;19930;-71
2024/04/10 02:38:11;;;;;;;;;;;;;;;6.56;100.00;95938.41;5364630;26;19929;-71
2024/04/10 02:40:38;;;;;;;;;;;;;;;6.51;100.00;95932.16;5360620;26;19930;-71
2024/04/10 02:43:07;;;;;;;;;;;;;;;6.54;100.00;95942.38;5354965;26;19965;-70
2024/04/10 02:45:34;;;;;;;;;;;;;;;6.56;100.00;95941.09;5356599;26;19970;-70
2024/04/10 02:48:02;;;;;;;;;;;;;;;6.57;100.00;95944.56;5362814;26;20374;-72
2024/04/10 02:50:29;;;;;;;;;;;;;;;6.57;100.00;95947.25;5362216;26;20364;-71
2024/04/10 02:52:56;;;;;;;;;;;;;;;6.58;100.00;95959.50;5359702;26;20279;-71
2024/04/10 02:55:27;;;;;;;;;;;;;;;6.58;100.00;95964.84;5895042;21;19938;-72
2024/04/10 02:57:55;;;;;;;;;;;;;;;6.57;100.00;95963.25;5265981;27;20288;-72
2024/04/10 03:00:22;;;;;;;;;;;;;;;6.56;100.00;95961.66;5268575;27;19937;-72
2024/04/10 03:02:49;;;;;;;;;;;;;;;6.59;100.00;95966.47;5266427;27;19932;-72
2024/04/10 03:05:17;;;;;;;;;;;;;;;6.59;100.00;95977.16;5267239;27;19937;-73
2024/04/10 03:07:44;;;;;;;;;;;;;;;6.60;100.00;95979.59;5268142;27;19981;-72
2024/04/10 03:10:12;;;;;;;;;;;;;;;6.61;100.00;95980.41;5267201;27;20189;-73
2024/04/10 03:12:40;;;;;;;;;;;;;;;6.60;100.00;95979.59;5270295;27;20325;-72
2024/04/10 03:15:09;;;;;;;;;;;;;;;6.54;100.00;95979.75;5267650;27;19941;-71
2024/04/10 03:17:36;;;;;;;;;;;;;;;6.60;100.00;95984.94;5269108;27;20195;-71
2024/04/10 03:20:05;;;;;;;;;;;;;;;6.59;100.00;95985.19;5267348;27;19935;-72
2024/04/10 03:22:32;;;;;;;;;;;;;;;6.62;100.00;95987.38;5265993;27;19937;-72
2024/04/10 03:25:00;;;;;;;;;;;;;;;6.65;100.00;95994.88;5264864;27;19938;-72
2024/04/10 03:27:27;;;;;;;;;;;;;;;6.62;100.00;95995.38;5265700;27;19931;-72
2024/04/10 03:29:54;;;;;;;;;;;;;;;6.54;100.00;96003.81;5265292;27;19938;-72
2024/04/10 03:32:21;;;;;;;;;;;;;;;6.57;100.00;96012.16;5266722;27;20400;-72
2024/04/10 03:34:49;;;;;;;;;;;;;;;6.53;100.00;96012.84;5267882;27;20361;-72
2024/04/10 03:37:16;;;;;;;;;;;;;;;6.56;100.00;96015.06;5267642;27;19930;-73
2024/04/10 03:39:43;;;;;;;;;;;;;;;6.58;100.00;96019.09;5265453;27;20299;-73
2024/04/10 03:42:11;;;;;;;;;;;;;;;6.53;100.00;96027.03;5267346;27;19937;-72
2024/04/10 03:44:39;;;;;;;;;;;;;;;6.45;100.00;96023.94;5267246;27;20262;-72
2024/04/10 03:47:06;;;;;;;;;;;;;;;6.43;100.00;96031.41;5269817;27;20272;-72
2024/04/10 03:49:33;;;;;;;;;;;;;;;6.44;100.00;96033.00;5266307;27;19931;-72
2024/04/10 03:52:01;;;;;;;;;;;;;;;6.51;100.00;96028.31;5237365;27;19949;-72
2024/04/10 03:54:28;;;;;;;;;;;;;;;6.44;100.00;96023.13;5262043;27;20303;-72
2024/04/10 03:56:55;;;;;;;;;;;;;;;6.47;100.00;96024.50;5270076;27;19931;-72
2024/04/10 03:59:22;;;;;;;;;;;;;;;6.46;100.00;96018.38;5263410;27;19931;-72
2024/04/10 04:01:50;;;;;;;;;;;;;;;6.48;100.00;96029.63;5265643;27;20379;-73
2024/04/10 04:04:18;;;;;;;;;;;;;;;6.47;100.00;96032.53;5269656;27;20326;-73
2024/04/10 04:06:46;;;;;;;;;;;;;;;6.48;100.00;96039.50;5264675;27;19931;-71
2024/04/10 04:09:13;;;;;;;;;;;;;;;6.38;100.00;96047.31;5264266;27;19931;-72
2024/04/10 04:11:40;;;;;;;;;;;;;;;6.42;100.00;96046.63;5265205;27;20370;-72
2024/04/10 04:14:08;;;;;;;;;;;;;;;6.43;100.00;96058.09;5265636;27;19930;-73
2024/04/10 04:16:35;;;;;;;;;;;;;;;6.46;100.00;96073.63;5265502;27;20358;-72
2024/04/10 04:19:02;;;;;;;;;;;;;;;6.49;100.00;96076.63;5266787;27;20347;-71
2024/04/10 04:21:31;;;;;;;;;;;;;;;6.50;100.00;96074.78;5263145;27;19931;-72
2024/04/10 04:23:59;;;;;;;;;;;;;;;6.48;100.00;96067.00;5266293;27;19931;-72
2024/04/10 04:26:26;;;;;;;;;;;;;;;6.46;100.00;96068.28;5264965;27;19938;-72
2024/04/10 04:28:53;;;;;;;;;;;;;;;6.45;100.00;96066.66;5264415;27;19942;-73
2024/04/10 04:31:21;;;;;;;;;;;;;;;6.39;100.00;96067.63;5264619;27;20985;-73
2024/04/10 04:33:48;;;;;;;;;;;;;;;6.44;100.00;96078.38;5234297;27;19931;-72
2024/04/10 04:36:16;;;;;;;;;;;;;;;6.42;100.00;96085.84;5264637;27;19937;-73
2024/04/10 04:38:43;;;;;;;;;;;;;;;6.43;100.00;96084.81;5264918;27;20285;-73
2024/04/10 04:41:10;;;;;;;;;;;;;;;6.40;100.00;96085.28;5237216;27;19931;-72
2024/04/10 04:43:37;;;;;;;;;;;;;;;6.45;100.00;96085.34;5266090;27;20354;-72
2024/04/10 04:46:07;;;;;;;;;;;;;;;6.44;100.00;96094.41;5265967;27;19931;-73
2024/04/10 04:48:35;;;;;;;;;;;;;;;6.42;100.00;96107.22;5264086;27;20533;-72
2024/04/10 04:51:07;;;;;;;;;;;;;;;6.43;100.00;96112.28;5264060;27;19936;-72
2024/04/10 04:53:34;;;;;;;;;;;;;;;6.44;100.00;96107.75;5235751;27;19937;-72
2024/04/10 04:56:02;;;;;;;;;;;;;;;6.46;100.00;96111.81;5270450;27;20388;-72
2024/04/10 04:58:29;;;;;;;;;;;;;;;6.46;100.00;96121.69;5264914;27;19931;-71
2024/04/10 05:00:59;;;;;;;;;;;;;;;6.43;100.00;96127.53;5262649;27;20361;-72
2024/04/10 05:06:13;;;;;;;;;;;;;;;6.37;100.00;96128.47;5265515;27;19931;-73
2024/04/10 05:08:44;;;;;;;;;;;;;;;6.32;100.00;96131.84;5264604;27;19937;-71
2024/04/10 05:11:12;;;;;;;;;;;;;;;6.31;100.00;96130.22;5268820;27;19937;-72
2024/04/10 05:13:39;;;;;;;;;;;;;;;6.29;100.00;96131.50;5267598;27;19931;-72
2024/04/10 05:16:06;;;;;;;;;;;;;;;6.32;100.00;96131.03;5263865;27;19931;-72
2024/04/10 05:18:34;;;;;;;;;;;;;;;6.23;100.00;96134.09;5265941;27;19966;-72
2024/04/10 05:21:01;;;;;;;;;;;;;;;6.22;100.00;96135.13;5268191;27;20381;-72
2024/04/10 05:23:28;;;;;;;;;;;;;;;6.30;100.00;96133.13;5269541;27;19938;-72
2024/04/10 05:26:05;;;;;;;;;;;;;;;6.28;100.00;96135.25;5268869;27;19931;-72
2024/04/10 05:28:32;;;;;;;;;;;;;;;6.25;100.00;96129.34;5269858;27;19935;-72
2024/04/10 05:31:00;;;;;;;;;;;;;;;6.35;100.00;96136.72;5266994;27;19931;-72
2024/04/10 05:33:28;;;;;;;;;;;;;;;6.39;100.00;96148.53;5266911;27;19931;-71
2024/04/10 05:35:59;;;;;;;;;;;;;;;6.30;100.00;96149.97;5269590;27;19930;-71
2024/04/10 05:38:28;;;;;;;;;;;;;;;6.28;100.00;96156.59;5265422;27;19938;-72
2024/04/10 05:40:57;;;;;;;;;;;;;;;6.23;100.00;96155.44;5235352;27;19937;-72
2024/04/10 05:43:27;;;;;;;;;;;;;;;6.20;100.00;96166.63;5264901;27;19931;-72
2024/04/10 05:45:55;;;;;;;;;;;;;;;6.20;100.00;96166.63;5262802;27;19938;-73
2024/04/10 05:48:23;;;;;;;;;;;;;;;6.21;100.00;96173.53;5263741;27;19930;-71
2024/04/10 05:51:00;;;;;;;;;;;;;;;6.32;100.00;96176.44;5263740;27;19938;-72
2024/04/10 05:53:27;;;;;;;;;;;;;;;6.35;100.00;96178.63;5262718;27;19931;-72
2024/04/10 05:55:55;;;;;;;;;;;;;;;6.30;100.00;96175.84;5267843;27;19931;-71
2024/04/10 05:58:22;;;;;;;;;;;;;;;6.29;100.00;96182.22;5262551;27;20015;-72
2024/04/10 06:00:50;;;;;;;;;;;;;;;6.27;100.00;96187.00;5237147;27;19938;-72
2024/04/10 06:03:20;;;;;;;;;;;;;;;6.23;100.00;96192.00;5232501;27;19931;-72
2024/04/10 06:05:47;;;;;;;;;;;;;;;6.29;100.00;96184.91;5266686;27;19937;-72
2024/04/10 06:08:14;;;;;;;;;;;;;;;6.19;100.00;96186.34;5262155;27;19931;-72
2024/04/10 06:10:42;;;;;;;;;;;;;;;6.19;100.00;96186.34;5264408;27;19930;-73
2024/04/10 06:13:09;;;;;;;;;;;;;;;6.23;100.00;96197.34;5264950;27;19938;-72
2024/04/10 06:15:37;;;;;;;;;;;;;;;6.20;100.00;96200.50;5264690;27;19937;-71
2024/04/10 06:18:04;;;;;;;;;;;;;;;6.25;100.00;96216.59;5235866;27;19937;-73
2024/04/10 06:20:31;;;;;;;;;;;;;;;6.18;100.00;96227.41;5267140;27;20058;-72
2024/04/10 06:22:59;;;;;;;;;;;;;;;6.17;100.00;96225.78;5268861;27;19937;-71
2024/04/10 06:25:26;;;;;;;;;;;;;;;6.21;100.00;96231.47;5268161;27;19937;-72
2024/04/10 06:27:53;;;;;;;;;;;;;;;6.25;100.00;96233.44;5268474;27;19931;-72
2024/04/10 06:30:21;;;;;;;;;;;;;;;6.24;100.00;96231.00;5266233;27;19941;-72
2024/04/10 06:32:48;;;;;;;;;;;;;;;6.25;100.00;96224.63;5265028;27;19931;-72
2024/04/10 06:35:16;;;;;;;;;;;;;;;6.24;100.00;96229.16;5268063;27;19931;-71
2024/04/10 06:37:43;;;;;;;;;;;;;;;6.20;100.00;96230.69;5266318;27;19931;-72
2024/04/10 06:40:11;;;;;;;;;;;;;;;6.21;100.00;96245.63;5272835;27;19931;-71
2024/04/10 06:42:38;;;;;;;;;;;;;;;6.21;100.00;96247.47;5266183;27;19931;-73
2024/04/10 06:45:05;;;;;;;;;;;;;;;6.25;100.00;96243.31;5268004;27;19938;-73
2024/04/10 06:47:32;;;;;;;;;;;;;;;6.23;100.00;96251.53;5270718;27;19931;-71
2024/04/10 06:50:03;;;;;;;;;;;;;;;6.24;100.00;96258.50;5268182;27;19931;-72
2024/04/10 06:52:30;;;;;;;;;;;;;;;6.22;100.00;96263.25;5268796;27;19938;-71
2024/04/10 06:54:57;;;;;;;;;;;;;;;6.23;100.00;96262.22;5268211;27;19938;-72
2024/04/10 06:57:25;;;;;;;;;;;;;;;6.25;100.00;96253.97;5265093;27;20252;-72
2024/04/10 06:59:52;;;;;;;;;;;;;;;6.32;100.00;96256.53;5271238;27;20254;-71
2024/04/10 07:02:20;;;;;;;;;;;;;;;6.32;100.00;96259.19;5266312;27;19931;-71
2024/04/10 07:04:48;;;;;;;;;;;;;;;6.35;100.00;96269.41;5268941;27;19931;-72
2024/04/10 07:07:16;;;;;;;;;;;;;;;6.46;100.00;96272.03;5266344;27;20280;-72
2024/04/10 07:09:43;;;;;;;;;;;;;;;6.54;100.00;96268.19;5271497;27;19931;-72
2024/04/10 07:12:11;;;;;;;;;;;;;;;6.60;100.00;96261.91;5266116;27;19937;-73
2024/04/10 07:14:39;;;;;;;;;;;;;;;6.67;100.00;96262.59;5268314;27;19943;-72
2024/04/10 07:17:07;;;;;;;;;;;;;;;6.71;100.00;96263.75;5269450;27;20376;-72
2024/04/10 07:19:34;;;;;;;;;;;;;;;6.74;100.00;96259.78;5267663;27;20417;-72
2024/04/10 07:22:05;;;;;;;;;;;;;;;6.72;100.00;96262.66;5267973;27;20569;-71
2024/04/10 07:24:33;;;;;;;;;;;;;;;6.77;100.00;96265.47;5261751;27;21000;-71
2024/04/10 07:27:00;;;;;;;;;;;;;;;6.82;100.00;96259.41;5267088;27;19931;-72
2024/04/10 07:29:28;;;;;;;;;;;;;;;6.87;100.00;96259.47;5265535;27;19939;-72
2024/04/10 07:31:56;;;;;;;;;;;;;;;6.88;100.00;96261.94;5265015;27;19938;-72
2024/04/10 07:34:23;;;;;;;;;;;;;;;6.95;100.00;96251.09;5265031;27;19937;-72
2024/04/10 07:36:50;;;;;;;;;;;;;;;6.97;100.00;96243.66;5266138;27;20339;-72
2024/04/10 07:39:19;;;;;;;;;;;;;;;6.97;100.00;96257.81;5268030;27;19937;-72
2024/04/10 07:41:46;;;;;;;;;;;;;;;6.89;100.00;96266.22;5266796;27;20057;-73
2024/04/10 07:44:14;;;;;;;;;;;;;;;6.72;100.00;96265.34;5264765;27;19938;-69
2024/04/10 07:46:43;;;;;;;;;;;;;;;6.76;100.00;96266.50;5271371;27;19931;-72
2024/04/10 07:49:11;;;;;;;;;;;;;;;6.74;100.00;96267.78;5264306;27;20043;-74
2024/04/10 07:51:39;;;;;;;;;;;;;;;6.80;100.00;96272.16;5267332;27;19937;-71
2024/04/10 07:54:06;;;;;;;;;;;;;;;6.91;100.00;96279.34;5267935;27;19937;-72
2024/04/10 07:56:33;;;;;;;;;;;;;;;6.97;100.00;96284.56;5264274;27;19930;-72
2024/04/10 07:59:01;;;;;;;;;;;;;;;7.18;100.00;96291.09;5265756;27;19931;-71
2024/04/10 08:01:28;;;;;;;;;;;;;;;7.25;100.00;96290.94;5267284;27;19937;-71
2024/04/10 08:03:55;;;;;;;;;;;;;;;7.20;100.00;96296.19;5268311;27;19937;-70
2024/04/10 08:06:23;;;;;;;;;;;;;;;7.11;100.00;96295.75;5268608;27;19931;-71
2024/04/10 08:08:50;;;;;;;;;;;;;;;7.11;100.00;96297.63;5267134;27;19935;-73
2024/04/10 08:11:18;;;;;;;;;;;;;;;7.20;100.00;96306.88;5264685;27;20223;-74
2024/04/10 08:13:46;;;;;;;;;;;;;;;7.18;100.00;96311.66;5268524;27;19931;-73
2024/04/10 08:16:15;;;;;;;;;;;;;;;7.17;100.00;96304.69;5266728;27;20272;-74
2024/04/10 08:18:43;;;;;;;;;;;;;;;7.28;100.00;96301.97;5263677;27;19931;-74
2024/04/10 08:21:14;;;;;;;;;;;;;;;7.30;100.00;96305.22;5265128;27;19931;-73
2024/04/10 08:23:43;;;;;;;;;;;;;;;7.27;100.00;96310.22;5263897;27;20270;-72
2024/04/10 08:26:20;;;;;;;;;;;;;;;7.23;100.00;96309.09;5264586;27;19938;-72
2024/04/10 08:28:49;;;;;;;;;;;;;;;7.16;100.00;96308.44;5265874;27;19931;-73
2024/04/10 08:31:20;;;;;;;;;;;;;;;7.28;100.00;96311.84;5266948;27;19937;-71
2024/04/10 08:33:49;;;;;;;;;;;;;;;7.36;100.00;96314.16;5269736;27;20260;-70
2024/04/10 08:36:16;;;;;;;;;;;;;;;7.47;100.00;96310.59;5266250;27;19931;-73
2024/04/10 08:38:44;;;;;;;;;;;;;;;7.46;100.00;96325.00;5266554;27;19931;-73
2024/04/10 08:41:16;;;;;;;;;;;;;;;7.46;100.00;96330.34;5232780;27;19938;-74
2024/04/10 08:43:44;;;;;;;;;;;;;;;7.47;100.00;96336.53;5263330;27;19938;-71
2024/04/10 08:46:12;;;;;;;;;;;;;;;7.43;100.00;96326.31;5263585;27;19931;-71
2024/04/10 08:48:40;;;;;;;;;;;;;;;7.60;100.00;96320.16;5265718;27;19937;-71
2024/04/10 08:51:12;;;;;;;;;;;;;;;7.73;100.00;96315.34;5263379;27;20401;-73
2024/04/10 08:53:41;;;;;;;;;;;;;;;7.73;100.00;96318.00;5264844;27;20375;-73
2024/04/10 08:56:09;;;;;;;;;;;;;;;7.88;100.00;96332.69;5232957;27;20357;-74
2024/04/10 08:58:37;;;;;;;;;;;;;;;7.95;100.00;96326.13;5264382;27;19938;-71
2024/04/10 09:01:05;;;;;;;;;;;;;;;7.87;100.00;96310.47;5265868;27;19935;-73
2024/04/10 09:03:34;;;;;;;;;;;;;;;7.91;100.00;96286.69;5264451;27;19937;-70
2024/04/10 09:06:07;;;;;;;;;;;;;;;7.93;100.00;96281.91;5265668;27;19931;-71
2024/04/10 09:08:37;;;;;;;;;;;;;;;7.88;100.00;96282.66;5262675;27;20373;-72
2024/04/10 09:11:04;;;;;;;;;;;;;;;7.96;100.00;96281.44;5266478;27;19935;-72
2024/04/10 09:13:32;;;;;;;;;;;;;;;7.90;100.00;96271.66;5266519;27;19939;-70
2024/04/10 09:15:59;;;;;;;;;;;;;;;7.68;100.00;96261.72;5266343;27;19938;-71
2024/04/10 09:18:27;;;;;;;;;;;;;;;7.85;100.00;96261.72;5264403;27;20707;-70
2024/04/10 09:21:03;;;;;;;;;;;;;;;7.85;100.00;96253.69;5264284;27;20335;-71
2024/04/10 09:23:30;;;;;;;;;;;;;;;8.02;100.00;95458.63;5264525;27;19937;-72
2024/04/10 09:25:57;;;;;;;;;;;;;;;8.23;100.00;95484.38;5235924;27;19931;-71
2024/04/10 09:28:24;;;;;;;;;;;;;;;8.26;100.00;95518.63;5265335;27;20233;-71
2024/04/10 09:30:56;;;;;;;;;;;;;;;8.09;100.00;95598.38;5265111;27;19931;-71
2024/04/10 09:33:26;;;;;;;;;;;;;;;8.08;100.00;95618.19;5233566;27;20572;-73
2024/04/10 09:35:55;;;;;;;;;;;;;;;8.21;100.00;95636.44;5263808;27;19930;-72
2024/04/10 09:38:23;;;;;;;;;;;;;;;8.16;100.00;96699.47;5263416;27;20365;-71
2024/04/10 09:40:58;;;;;;;;;;;;;;;8.20;100.00;96693.41;5261698;27;20382;-72
2024/04/10 09:43:28;;;;;;;;;;;;;;;8.19;100.00;96704.34;5265309;27;19931;-72
2024/04/10 09:45:57;;;;;;;;;;;;;;;8.14;100.00;96705.06;5263107;27;19941;-73
2024/04/10 09:48:31;;;;;;;;;;;;;;;8.21;100.00;96703.06;5257534;27;19931;-72
2024/04/10 09:51:06;;;;;;;;;;;;;;;8.13;100.00;96710.66;5266428;27;19965;-72
2024/04/10 09:53:34;;;;;;;;;;;;;;;8.35;100.00;96706.31;5263328;27;19965;-71
2024/04/10 09:56:03;;;;;;;;;;;;;;;8.61;100.00;96707.66;5268862;27;20290;-71
2024/04/10 09:58:34;;;;;;;;;;;;;;;8.67;100.00;96706.69;5264854;27;20342;-71
2024/04/10 10:01:02;;;;;;;;;;;;;;;8.75;100.00;96709.00;5265868;27;19938;-72
2024/04/10 10:03:30;;;;;;;;;;;;;;;8.76;100.00;96717.88;5269904;27;19931;-72
2024/04/10 10:06:01;;;;;;;;;;;;;;;8.79;100.00;96726.22;5266672;27;19938;-71
2024/04/10 10:08:28;;;;;;;;;;;;;;;8.64;100.00;96717.88;5267892;27;19931;-72
2024/04/10 10:10:57;;;;;;;;;;;;;;;8.63;100.00;96726.16;5270754;27;19937;-71
2024/04/10 10:13:25;;;;;;;;;;;;;;;8.69;100.00;96727.91;5268235;27;19931;-72
2024/04/10 10:15:58;;;;;;;;;;;;;;;8.80;100.00;96727.03;5268452;27;20374;-71
2024/04/10 10:18:27;;;;;;;;;;;;;;;8.80;100.00;96714.44;5265734;27;20379;-73
2024/04/10 10:21:04;;;;;;;;;;;;;;;8.59;100.00;96723.97;5268111;27;19931;-72
2024/04/10 10:23:32;;;;;;;;;;;;;;;8.75;100.00;96716.22;5265550;27;19937;-72
2024/04/10 10:26:00;;;;;;;;;;;;;;;8.81;100.00;96721.44;5268005;27;19931;-71
2024/04/10 10:28:31;;;;;;;;;;;;;;;8.84;100.00;96712.13;5268484;27;20362;-73
2024/04/10 10:31:04;;;;;;;;;;;;;;;8.91;100.00;96712.78;5269197;27;19937;-74
2024/04/10 10:33:31;;;;;;;;;;;;;;;8.85;100.00;96721.78;5267283;27;20377;-74
2024/04/10 10:35:59;;;;;;;;;;;;;;;8.83;100.00;96721.22;5265813;27;20469;-71
2024/04/10 10:38:26;;;;;;;;;;;;;;;8.89;100.00;96714.88;5266947;27;19941;-74
2024/04/10 10:40:54;;;;;;;;;;;;;;;8.93;100.00;96721.38;5269679;27;20458;-72
2024/04/10 10:43:21;;;;;;;;;;;;;;;8.90;100.00;96721.88;5268821;27;20387;-73
2024/04/10 10:45:51;;;;;;;;;;;;;;;8.85;100.00;96719.09;5244127;27;20405;-71
2024/04/10 10:48:19;;;;;;;;;;;;;;;8.82;100.00;96720.41;5268303;27;19931;-71
2024/04/10 10:50:53;;;;;;;;;;;;;;;9.08;100.00;96718.97;5270877;27;19935;-72
2024/04/10 10:53:21;;;;;;;;;;;;;;;9.11;100.00;96720.38;5271516;27;19931;-72
2024/04/10 10:55:50;;;;;;;;;;;;;;;9.17;100.00;96733.63;5266966;27;19931;-71
2024/04/10 10:58:18;;;;;;;;;;;;;;;9.02;100.00;96736.03;5265776;27;21385;-74
2024/04/10 11:00:45;;;;;;;;;;;;;;;8.91;100.00;96735.03;5265592;27;19958;-71
2024/04/10 11:03:16;;;;;;;;;;;;;;;8.99;100.00;96731.97;5267257;27;19931;-71
2024/04/10 11:06:05;;;;;;;;;;;;;;;9.01;100.00;96731.72;5267126;27;19936;-71
2024/04/10 11:08:33;;;;;;;;;;;;;;;9.02;100.00;96741.41;5269985;27;19931;-71
2024/04/10 11:11:00;;;;;;;;;;;;;;;9.03;100.00;96739.53;5264009;27;19938;-72
2024/04/10 11:13:27;;;;;;;;;;;;;;;8.99;100.00;96741.88;5267252;27;19942;-72
2024/04/10 11:15:57;;;;;;;;;;;;;;;8.98;100.00;96740.28;5267300;27;19931;-73
2024/04/10 11:18:25;;;;;;;;;;;;;;;9.09;100.00;96755.47;5269549;27;20112;-73
2024/04/10 11:20:53;;;;;;;;;;;;;;;9.19;100.00;96753.00;5266828;27;19931;-75
2024/04/10 11:23:23;;;;;;;;;;;;;;;9.20;100.00;96759.19;5265691;27;20202;-74
2024/04/10 11:25:51;;;;;;;;;;;;;;;9.32;100.00;96752.69;5269675;27;20472;-73
2024/04/10 11:28:19;;;;;;;;;;;;;;;9.46;100.00;96753.19;5269491;27;19942;-72
2024/04/10 11:30:46;;;;;;;;;;;;;;;9.42;100.00;96741.31;5265477;27;19931;-72
2024/04/10 11:33:13;;;;;;;;;;;;;;;9.51;100.00;96747.06;5265844;27;19931;-72
2024/04/10 11:35:41;;;;;;;;;;;;;;;9.61;100.00;96756.13;5264321;27;19937;-71
2024/04/10 11:38:08;;;;;;;;;;;;;;;9.71;100.00;96748.25;5268658;27;19966;-71
2024/04/10 11:40:36;;;;;;;;;;;;;;;9.71;100.00;96755.47;5265866;27;19937;-71
2024/04/10 11:43:03;;;;;;;;;;;;;;;9.64;100.00;96757.53;5238938;27;19931;-72
2024/04/10 11:45:31;;;;;;;;;;;;;;;9.84;100.00;96749.78;5265558;27;19931;-73
2024/04/10 11:47:59;;;;;;;;;;;;;;;10.00;100.00;96756.19;5267403;27;19966;-72
2024/04/10 11:50:27;;;;;;;;;;;;;;;10.04;100.00;96742.03;5266583;27;19935;-72
2024/04/10 11:52:55;;;;;;;;;;;;;;;10.19;100.00;96756.75;5268714;27;19931;-71
2024/04/10 11:55:22;;;;;;;;;;;;;;;10.10;100.00;96759.84;5263372;27;20262;-71
2024/04/10 11:57:49;;;;;;;;;;;;;;;10.00;100.00;96765.06;5265271;27;20392;-74
2024/04/10 12:00:17;;;;;;;;;;;;;;;10.10;100.00;96749.09;5264337;27;19931;-74
2024/04/10 12:02:44;;;;;;;;;;;;;;;10.11;100.00;96750.72;5266142;27;19931;-72
2024/04/10 12:05:11;;;;;;;;;;;;;;;10.11;100.00;96756.09;5265097;27;19971;-72
2024/04/10 12:07:41;;;;;;;;;;;;;;;9.83;100.00;96764.25;5268709;27;19937;-74
2024/04/10 12:10:08;;;;;;;;;;;;;;;10.05;100.00;96759.75;5267264;27;19931;-72
2024/04/10 12:12:36;;;;;;;;;;;;;;;10.19;100.00;96760.25;5266588;27;19937;-73
2024/04/10 12:15:05;;;;;;;;;;;;;;;10.33;100.00;96758.84;5234403;27;19937;-73
2024/04/10 12:17:33;;;;;;;;;;;;;;;10.11;100.00;96760.66;5267049;27;19931;-72
2024/04/10 12:20:01;;;;;;;;;;;;;;;10.21;100.00;96766.22;5264172;27;19937;-72
2024/04/10 12:22:30;;;;;;;;;;;;;;;10.25;100.00;96767.31;5264952;27;19937;-74
2024/04/10 12:24:57;;;;;;;;;;;;;;;10.40;100.00;96759.47;5265033;27;19931;-71
2024/04/10 12:27:25;;;;;;;;;;;;;;;10.69;100.00;96754.75;5264565;27;19937;-73
2024/04/10 12:29:53;;;;;;;;;;;;;;;10.84;100.00;96754.09;5268491;27;19931;-73
2024/04/10 12:32:21;;;;;;;;;;;;;;;10.96;100.00;96764.75;5266535;27;19930;-74
2024/04/10 12:34:49;;;;;;;;;;;;;;;10.96;100.00;96773.59;5271488;27;19931;-71
2024/04/10 12:40:03;;;;;;;;;;;;;;;10.67;100.00;96676.19;5266460;27;19931;-72
2024/04/10 12:42:30;;;;;;;;;;;;;;;10.64;100.00;96690.16;5266458;27;20362;-74
2024/04/10 12:44:58;;;;;;;;;;;;;;;10.86;100.00;96698.19;5265091;27;20372;-74
2024/04/10 12:47:25;;;;;;;;;;;;;;;10.96;100.00;96702.88;5265930;27;19931;-72
2024/04/10 12:49:52;;;;;;;;;;;;;;;11.07;100.00;96709.97;5263864;27;19931;-71
2024/04/10 12:52:20;;;;;;;;;;;;;;;10.79;100.00;96729.84;5268699;27;19931;-72
2024/04/10 12:54:47;;;;;;;;;;;;;;;11.14;100.00;96722.16;5266373;27;19931;-73